# Land Stadt Wetter Temperatur Luftdruck Luftfeuchtigkeit Sichtweite Windgeschwindigkeit Windrichtung Ortszeit
1 ad Andorra la Vella Clouds 20 1011 57 0 2 100 02.08.2018 14:22
2 ae Dubai Clear 36 1013 34 10000 18 310 02.08.2018 14:21
3 af Kabul Clear 26 1023 7 10000 9 360 02.08.2018 14:21
4 ar Buenos Aires Clear 8 1029 61 10000 22 150 02.08.2018 14:22
5 ar Esquel Clear 7 1029 24 10000 24 50 02.08.2018 14:22
6 ar Ushuaia Clouds 6 1023 70 10000 41 250 02.08.2018 14:22
7 at Innsbruck Clear 17 1018 76 10000 5 90 02.08.2018 14:23
8 at Wien Fog 16 1020 93 6000 15 140 02.08.2018 14:22
9 au Alice Springs -273 0 0 0 0 0 02.08.2018 14:21
10 au Darwin Clear 29 1010 30 10000 15 30 02.08.2018 14:22
11 au Perth Clouds 16 1020 59 10000 26 210 02.08.2018 14:21
12 au Sydney Rain 18 1014 77 10000 21 30 02.08.2018 14:22
13 bg Sofia Clear 23 1024 52 10000 4 0 02.08.2018 14:21
14 bg Warna Clouds 21 1023 64 10000 13 100 02.08.2018 14:21
15 bo La Paz -273 0 0 0 0 0 02.08.2018 14:22
16 bo Potisi Clouds 6 1018 56 0 6 21 02.08.2018 14:22
17 br Manaus Rain 23 1011 94 10000 4 130 02.08.2018 14:21
18 br Rio de Janeiro Clear 27 1012 83 10000 8 360 02.08.2018 14:22
19 bs Nassau Clouds 25 1016 83 10000 5 90 02.08.2018 14:22
20 ca Montreal Clouds 8 1012 81 14484 8 160 02.08.2018 14:22
21 cd Kisangani Clouds 30 1013 70 10000 8 120 02.08.2018 14:23
22 ch Andermatt Clear 18 1018 72 0 4 0 02.08.2018 14:23
23 ch Bern Clear 18 1017 72 10000 5 0 02.08.2018 14:23
24 ck Avarua Clouds 22 1015 73 10000 8 110 02.08.2018 14:22
25 cl Santiago Clouds 12 1015 81 8000 17 140 02.08.2018 14:23
26 cn Lhasa -273 0 0 0 0 0 02.08.2018 14:22
27 cn Peking Clear 11 1035 33 10000 7 160 02.08.2018 14:23
28 cn Shanghai Clouds 20 1027 77 10000 32 20 02.08.2018 14:21
29 de Berlin Clouds 22 1016 64 10000 13 270 02.08.2018 14:21
30 de Braunschweig Clouds 19 1015 68 10000 8 330 02.08.2018 14:21
31 de Bremen Clouds 17 1015 67 10000 4 0 02.08.2018 14:22
32 de Dresden Clear 22 1017 60 10000 15 140 02.08.2018 14:22
33 de Emden Clouds 15 1014 87 10000 5 90 02.08.2018 14:21
34 de Flensburg Clouds 15 1014 72 10000 17 310 02.08.2018 14:21
35 de Frankfurt Clear 21 1014 56 10000 13 200 02.08.2018 14:22
36 de Freiburg Clear 21 1015 60 10000 8 230 02.08.2018 14:22
37 de Hamburg Clouds 16 1015 72 10000 9 260 02.08.2018 14:21
38 de Hannover Clouds 18 1015 68 10000 4 0 02.08.2018 14:21
39 de Helgoland Clouds 15 1015 76 10000 9 260 02.08.2018 14:22
40 de Hiddensee Clouds 18 1019 70 0 2 292 02.08.2018 14:21
41 de Kassel Clear 21 1014 60 10000 11 130 02.08.2018 14:21
42 de Köln Clear 20 1012 64 10000 13 120 02.08.2018 14:21
43 de Magdeburg Clouds 21 1015 61 0 5 61 02.08.2018 14:22
44 de München Clear 20 1016 52 10000 11 80 02.08.2018 14:21
45 de Nürnberg Haze 21 1016 60 10000 4 0 02.08.2018 14:21
46 de Oberstdorf Clouds 19 1017 100 10000 9 280 02.08.2018 14:21
47 de Stuttgart Clear 22 1016 56 10000 2 0 02.08.2018 14:22
48 de Torfhaus Clouds 20 1015 68 10000 8 330 02.08.2018 14:22
49 de Trier Clouds 19 1013 72 10000 18 150 02.08.2018 14:21
50 do Santo Domingo Clouds 25 1013 100 10000 6 356 02.08.2018 14:21
51 ec San Cristobal Clouds 19 1013 88 0 20 174 02.08.2018 14:22
52 eg Kairo Clear 30 1015 48 6000 8 330 02.08.2018 14:22
53 es Barcelona Clouds 23 1015 73 10000 22 70 02.08.2018 14:22
54 es Las Palmas de Gran Canaria Clouds 22 1021 64 10000 33 20 02.08.2018 14:21
55 es Madrid Rain 17 1014 77 10000 37 230 02.08.2018 14:23
56 es Palma de Mallorca Clear 27 1015 54 10000 5 0 02.08.2018 14:22
57 es Sevilla Rain 20 1017 68 10000 11 250 02.08.2018 14:22
58 es Tarifa Rain 21 1017 73 10000 18 270 02.08.2018 14:21
59 et Addis Abeba Clouds 22 1026 40 10000 33 100 02.08.2018 14:23
60 fi Helsinki Rain 6 1005 93 4500 22 40 02.08.2018 14:21
61 fi Rovaniemi Fog 0 1007 97 10000 5 290 02.08.2018 14:21
62 fj Suva Clouds 26 1012 83 10000 9 50 02.08.2018 14:21
63 fr Bordeaux Rain 21 1006 73 10000 21 140 02.08.2018 14:21
64 fr Nizza Clouds 23 1020 73 10000 24 80 02.08.2018 14:22
65 fr Paris Clear 21 1008 60 10000 24 150 02.08.2018 14:22
66 gb Glasgow Clouds 10 1008 87 10000 9 90 02.08.2018 14:21
67 gb London Rain 12 1008 87 10000 17 70 02.08.2018 14:22
68 gb Manchester Fog 11 1008 82 10000 5 0 02.08.2018 14:21
69 gl Nuuk Clouds -3 1012 73 10000 30 30 02.08.2018 14:22
70 gr Athen Clear 26 1019 30 10000 13 340 02.08.2018 14:22
71 id Jakarta Clouds 30 1008 58 7000 21 30 02.08.2018 14:22
72 ie Dublin Rain 12 1004 87 10000 17 140 02.08.2018 14:21
73 in Jagatsukh Clouds 1 1018 75 0 7 223 02.08.2018 14:22
74 in Mumbai Smoke 34 1009 59 2500 17 320 02.08.2018 14:22
75 in Nagpur Haze 31 1013 31 5000 8 20 02.08.2018 14:21
76 iq Bagdad Clear 36 1016 19 10000 13 270 02.08.2018 14:22
77 is Reykjavik -273 0 0 0 0 0 02.08.2018 14:22
78 it Mailand Mist 18 1023 77 10000 8 350 02.08.2018 14:21
79 it Palermo Clouds 24 1021 78 10000 13 20 02.08.2018 14:22
80 it Rom Clouds 22 1022 60 10000 4 0 02.08.2018 14:23
81 jp Nagasaki Clouds 19 1020 68 10000 30 10 02.08.2018 14:21
82 jp Tokio Rain 16 1018 88 6000 35 340 02.08.2018 14:22
83 ke Nairobi Clouds 21 1022 68 10000 13 110 02.08.2018 14:22
84 kr Seoul Clear 13 1026 71 10000 4 160 02.08.2018 14:21
85 ma Casablanca Drizzle 21 1021 73 10000 21 220 02.08.2018 14:23
86 ma Marrakesch Clouds 22 1022 60 10000 8 190 02.08.2018 14:23
87 mg Antananarivo Clouds 28 1018 37 10000 9 180 02.08.2018 14:21
88 mn Ulaanbaatar Clear 3 1032 25 10000 7 210 02.08.2018 14:23
89 mn Uliastai Clear -4 1029 38 0 3 189 02.08.2018 14:23
90 mv Male Clouds 29 1009 61 0 4 3 02.08.2018 14:23
91 mx Mexiko Stadt Clear 14 1026 82 11265 8 300 02.08.2018 14:21
92 mx Veracruz Clear 23 1012 80 0 5 305 02.08.2018 14:21
93 no Hammerfest Clouds 3 1010 86 10000 8 170 02.08.2018 14:22
94 no Oslo Clouds 9 1009 81 10000 11 360 02.08.2018 14:23
95 nz Wellington -273 0 0 0 0 0 02.08.2018 14:23
96 pe Cusco Clouds 7 1031 87 10000 5 100 02.08.2018 14:23
97 pg Port Moresby Clouds 26 1012 83 10000 18 150 02.08.2018 14:21
98 ph Manila Clouds 30 1011 55 10000 11 90 02.08.2018 14:21
99 pt Lissabon Rain 16 1016 93 10000 11 260 02.08.2018 14:22
100 qa Doha Haze 36 1013 50 10000 15 60 02.08.2018 14:23
101 ru Amderma Clouds 3 1002 87 0 21 50 02.08.2018 14:23
102 ru Anadyr Clear 2 993 93 10000 18 110 02.08.2018 14:23
103 ru Jakutsk Clouds -7 1010 95 0 8 265 02.08.2018 14:22
104 ru Moskau Rain 11 1015 76 10000 11 190 02.08.2018 14:22
105 ru Surgut Rain 7 997 91 0 23 194 02.08.2018 14:23
106 ru Werchojansk Clouds -14 1009 81 0 4 156 02.08.2018 14:22
107 sa Riad Clear 35 1018 24 10000 9 110 02.08.2018 14:21
108 sb Honiara Clouds 25 1012 94 0 26 143 02.08.2018 14:22
109 se Stockholm Rain 9 1003 93 10000 18 30 02.08.2018 14:23
110 th Bangkok Clouds 32 1009 55 10000 15 110 02.08.2018 14:21
111 tr Alanya Haze 33 1020 19 6000 15 130 02.08.2018 14:22
112 tr Ankara Clouds 24 1025 13 10000 4 0 02.08.2018 14:23
113 tr Istanbul Clear 22 1022 64 10000 8 220 02.08.2018 14:23
114 ua Kiew Clear 24 1021 33 10000 18 230 02.08.2018 14:21
115 us Chicago Clear 2 1017 67 16093 11 276 02.08.2018 14:23
116 us Death Valley Clouds 7 1011 24 0 3 299 02.08.2018 14:22
117 us Denver Clear 5 1016 19 16093 9 245 02.08.2018 14:21
118 us Fairbanks Clear -6 1019 73 16093 11 70 02.08.2018 14:23
119 us Honolulu Clouds 26 1015 65 16093 11 60 02.08.2018 14:22
120 us Las Vegas Clouds 13 1012 34 16093 5 360 02.08.2018 14:21
121 us Los Angeles Rain 14 1013 72 16093 6 129 02.08.2018 14:22
122 us Miami Clouds 24 1016 74 16093 7 84 02.08.2018 14:23
123 us New York Clouds 14 1016 82 16093 3 296 02.08.2018 14:22
124 us Nome Clouds 1 1011 80 16093 18 70 02.08.2018 14:23
125 us Tucson Clear 16 1013 31 16093 5 80 02.08.2018 14:21
126 uy Montevideo Clouds 10 1028 57 10000 24 150 02.08.2018 14:22
127 vn Hanoi Clouds 28 1016 69 10000 15 20 02.08.2018 14:21
128 za Kapstadt Clouds 21 1016 64 10000 21 300 02.08.2018 14:22